createdAt,value
2019-05-19T05:15:58.317Z,8.23
2019-05-19T05:18:47.818Z,8.58
2019-05-19T05:21:13.637Z,7.42
2019-05-19T05:23:40.137Z,14.47
2019-05-19T05:28:38.866Z,11.68
2019-05-19T05:31:09.209Z,9.50
2019-05-19T05:33:36.133Z,9.98
2019-05-19T05:36:08.331Z,9.45
2019-05-19T05:38:37.078Z,9.23
2019-05-19T05:41:12.389Z,9.03
2019-05-19T05:43:50.927Z,10.30
2019-05-19T05:46:17.546Z,8.40
2019-05-19T05:48:51.067Z,8.85
2019-05-19T05:51:19.351Z,8.23
2019-05-19T05:53:45.380Z,11.18
2019-05-19T05:56:13.629Z,9.63
2019-05-19T05:58:40.022Z,11.00
2019-05-19T06:01:08.711Z,10.78
2019-05-19T06:03:34.850Z,11.18
2019-05-19T06:06:01.641Z,13.60
2019-05-19T06:08:27.678Z,11.97
2019-05-19T06:10:59.306Z,13.93
2019-05-19T06:13:29.322Z,14.70
2019-05-19T06:15:56.733Z,15.63
2019-05-19T06:18:34.352Z,17.30
2019-05-19T06:21:00.378Z,17.02
2019-05-19T06:23:31.645Z,15.63
2019-05-19T06:25:59.639Z,16.05
2019-05-19T06:28:25.950Z,20.10
2019-05-19T06:30:52.457Z,19.05
2019-05-19T06:33:19.114Z,18.92
2019-05-19T06:35:46.096Z,19.82
2019-05-19T06:38:14.242Z,17.98
2019-05-19T06:40:40.960Z,20.72
2019-05-19T06:43:08.549Z,18.12
2019-05-19T06:45:34.618Z,19.82
2019-05-19T06:48:03.544Z,19.70
2019-05-19T06:50:31.486Z,22.82
2019-05-19T06:53:12.775Z,18.25
2019-05-19T06:55:26.685Z,18.27
2019-05-19T06:57:53.006Z,19.40
2019-05-19T07:00:20.592Z,17.48
2019-05-19T07:02:46.759Z,20.65
2019-05-19T07:05:14.621Z,20.52
2019-05-19T07:07:40.650Z,18.55
2019-05-19T07:10:07.687Z,17.42
2019-05-19T07:12:34.126Z,18.73
2019-05-19T07:15:00.567Z,20.17
2019-05-19T07:17:26.680Z,18.57
2019-05-19T07:19:54.247Z,22.25
2019-05-19T07:22:21.464Z,21.42
2019-05-19T07:24:47.967Z,19.92
2019-05-19T07:27:19.790Z,22.65
2019-05-19T07:29:54.983Z,19.17
2019-05-19T07:37:52.950Z,20.82
2019-05-19T07:43:12.905Z,20.50
2019-05-19T07:48:23.381Z,19.42
2019-05-19T07:54:06.225Z,17.30
2019-05-19T07:59:15.485Z,22.62
2019-05-19T08:04:17.310Z,20.37
2019-05-19T08:09:30.937Z,21.65
2019-05-19T08:11:57.128Z,20.25
2019-05-19T08:19:28.934Z,23.60
2019-05-19T08:21:56.901Z,19.70
2019-05-19T08:35:20.907Z,17.82
2019-05-19T08:42:57.418Z,18.87
2019-05-19T08:48:15.107Z,18.27
2019-05-19T08:50:46.881Z,19.00
2019-05-19T08:59:36.943Z,22.25
2019-05-19T09:02:02.983Z,18.12
2019-05-19T09:04:30.018Z,18.52
2019-05-19T09:12:29.312Z,18.05
2019-05-19T09:15:00.458Z,19.85
2019-05-19T09:22:36.752Z,18.07
2019-05-19T09:25:06.723Z,19.00
2019-05-19T09:27:33.953Z,18.60
2019-05-19T09:40:32.965Z,18.62
2019-05-19T09:45:47.078Z,18.32
2019-05-19T09:50:45.692Z,20.43
2019-05-19T09:55:51.413Z,18.70
2019-05-19T09:58:20.110Z,15.45
2019-05-19T10:00:50.954Z,18.57
2019-05-19T10:08:29.260Z,14.58
2019-05-19T10:13:59.038Z,18.65
2019-05-19T10:18:57.371Z,18.57
2019-05-19T10:21:23.955Z,18.85
2019-05-19T10:23:50.026Z,17.32
2019-05-19T10:26:21.719Z,16.60
2019-05-19T10:33:52.608Z,15.10
2019-05-19T10:36:28.013Z,18.95
2019-05-19T10:38:59.758Z,14.70
2019-05-19T10:44:15.562Z,14.50
2019-05-19T10:49:19.626Z,16.00
2019-05-19T10:54:30.620Z,13.95
2019-05-19T10:59:34.855Z,11.85
2019-05-19T11:04:34.637Z,12.47
2019-05-19T11:09:35.602Z,12.65
2019-05-19T11:14:34.795Z,11.28
2019-05-19T11:19:35.497Z,7.12
2019-05-19T11:24:35.201Z,12.05
2019-05-19T11:34:49.500Z,9.25
2019-05-19T11:42:40.509Z,13.55
2019-05-19T11:47:39.856Z,11.05
2019-05-19T11:52:40.129Z,10.40
2019-05-19T11:57:40.833Z,9.15
2019-05-19T12:02:40.596Z,10.30
2019-05-19T12:07:42.010Z,10.53
2019-05-19T12:10:08.438Z,12.60
2019-05-19T12:17:47.076Z,12.47
2019-05-19T12:20:13.598Z,13.32
2019-05-19T12:27:46.530Z,13.58
2019-05-19T12:38:21.444Z,13.62
2019-05-19T12:43:42.609Z,13.13
2019-05-19T12:48:43.417Z,14.03
2019-05-19T12:51:09.592Z,15.23
2019-05-19T12:58:42.481Z,13.03
2019-05-19T13:01:13.485Z,14.45
2019-05-19T13:08:47.861Z,13.25
2019-05-19T13:11:13.885Z,15.20
2019-05-19T13:18:45.957Z,14.55
2019-05-19T13:21:27.784Z,16.10
2019-05-19T13:23:56.612Z,16.45
2019-05-19T13:26:22.656Z,15.45
2019-05-19T13:33:52.736Z,16.93
2019-05-19T13:37:19.044Z,15.88
2019-05-19T13:39:49.930Z,16.67
2019-05-19T13:42:19.325Z,15.55
2019-05-19T13:45:09.229Z,16.17
2019-05-19T13:47:51.667Z,15.15
2019-05-19T13:50:18.558Z,15.10
2019-05-19T13:52:44.584Z,14.93
2019-05-19T13:57:53.952Z,12.90
2019-05-19T14:00:21.505Z,15.00
2019-05-19T14:02:49.864Z,15.80
2019-05-19T14:05:16.111Z,14.85
2019-05-19T14:07:44.283Z,16.65
2019-05-19T14:10:10.810Z,16.75
2019-05-19T14:12:36.832Z,13.72
2019-05-19T14:15:05.814Z,15.90
2019-05-19T14:17:32.042Z,17.30
2019-05-19T14:19:58.793Z,19.07
2019-05-19T14:22:27.772Z,14.10
2019-05-19T14:24:53.885Z,17.20
2019-05-19T14:27:30.231Z,15.15
2019-05-19T14:29:50.154Z,15.08
2019-05-19T14:32:16.185Z,14.43
2019-05-19T14:34:42.318Z,18.15
2019-05-19T14:37:08.874Z,16.37
2019-05-19T14:39:35.103Z,16.95
2019-05-19T14:42:04.360Z,16.20
2019-05-19T14:44:30.442Z,13.80
2019-05-19T14:46:56.521Z,15.25
2019-05-19T14:49:24.406Z,16.32
2019-05-19T14:51:51.037Z,14.75
2019-05-19T14:54:17.148Z,18.17
2019-05-19T14:56:43.273Z,15.90
2019-05-19T14:59:09.413Z,15.85
2019-05-19T15:01:35.446Z,13.40
2019-05-19T15:04:01.478Z,14.23
2019-05-19T15:06:27.585Z,19.50
2019-05-19T15:08:53.617Z,16.23
2019-05-19T15:11:20.235Z,16.77
2019-05-19T15:13:47.692Z,16.35
2019-05-19T15:16:13.730Z,16.85
2019-05-19T15:18:41.585Z,11.40
2019-05-19T15:21:07.640Z,11.22
2019-05-19T15:23:33.686Z,9.75
2019-05-19T15:25:59.857Z,9.45
2019-05-19T15:28:25.886Z,7.90
2019-05-19T15:30:52.508Z,10.18
2019-05-19T15:33:18.646Z,8.88
2019-05-19T15:35:44.682Z,8.35
2019-05-19T15:38:10.777Z,9.13
2019-05-19T15:40:36.799Z,9.30
2019-05-19T15:43:04.063Z,9.73
2019-05-19T15:45:30.945Z,10.68
2019-05-19T15:47:57.251Z,12.05
2019-05-19T15:50:23.298Z,12.85
2019-05-19T15:52:49.711Z,11.88
2019-05-19T15:55:15.746Z,12.80
2019-05-19T15:57:41.852Z,14.45
2019-05-19T16:00:09.074Z,16.00
2019-05-19T16:02:35.243Z,18.92
2019-05-19T16:05:01.846Z,13.85
2019-05-19T16:07:28.133Z,12.07
2019-05-19T16:09:54.319Z,10.58
2019-05-19T16:12:20.366Z,10.93
2019-05-19T16:14:59.907Z,13.78
2019-05-19T16:17:26.135Z,12.63
2019-05-19T16:40:02.083Z,10.55
2019-05-19T16:42:35.143Z,13.00
2019-05-19T16:45:01.333Z,10.32
2019-05-19T16:47:27.607Z,10.30
2019-05-19T16:49:53.819Z,9.00
2019-05-19T16:52:19.886Z,10.32
2019-05-19T16:54:47.925Z,7.12
2019-05-19T16:57:14.056Z,7.35
2019-05-19T16:59:40.107Z,7.65
2019-05-19T17:02:06.174Z,8.23
2019-05-19T17:04:32.337Z,7.75
2019-05-19T17:06:58.503Z,6.40
2019-05-19T17:09:24.648Z,9.00
2019-05-19T17:11:50.913Z,6.15
2019-05-19T17:14:16.951Z,5.00
2019-05-19T17:16:43.138Z,8.93
2019-05-19T17:19:09.307Z,8.53
2019-05-19T17:21:35.431Z,15.15
2019-05-19T17:24:01.513Z,5.58
2019-05-19T17:26:27.768Z,5.03
2019-05-19T17:29:00.531Z,5.15
2019-05-19T17:31:21.863Z,4.22
2019-05-19T17:33:48.002Z,4.10
2019-05-19T17:36:14.209Z,4.65
2019-05-19T17:38:40.297Z,4.35
2019-05-19T17:41:06.567Z,4.37
2019-05-19T17:43:32.638Z,4.40
2019-05-19T17:45:59.137Z,6.67
2019-05-19T17:48:27.058Z,5.97
2019-05-19T17:50:53.292Z,5.22
2019-05-19T17:53:19.857Z,6.67
2019-05-19T17:55:47.071Z,8.40
2019-05-19T17:58:13.327Z,8.18
2019-05-19T18:00:40.482Z,6.08
2019-05-19T18:03:06.642Z,5.55
2019-05-19T18:05:33.340Z,5.55
2019-05-19T18:07:59.618Z,6.45
2019-05-19T18:10:25.814Z,7.00
2019-05-19T18:12:51.872Z,7.65
2019-05-19T18:15:18.049Z,5.50
2019-05-19T18:17:44.094Z,7.17
2019-05-19T18:20:22.966Z,7.40
2019-05-19T18:22:38.171Z,8.68
2019-05-19T18:25:04.531Z,7.08
2019-05-19T18:27:30.842Z,7.05
2019-05-19T18:29:56.988Z,5.42
2019-05-19T18:32:23.233Z,6.22
2019-05-19T18:34:49.279Z,6.70
2019-05-19T18:37:15.440Z,8.13
2019-05-19T18:39:41.630Z,11.33
2019-05-19T18:42:07.682Z,10.80
2019-05-19T18:44:33.932Z,8.10
2019-05-19T18:46:59.982Z,8.20
2019-05-19T18:49:26.175Z,6.72
2019-05-19T18:51:52.263Z,7.30
2019-05-19T18:54:18.522Z,5.05
2019-05-19T18:56:44.638Z,7.12
2019-05-19T18:59:10.711Z,5.10
2019-05-19T19:01:37.000Z,6.90
2019-05-19T19:04:03.362Z,6.05
2019-05-19T19:06:30.693Z,7.03
2019-05-19T19:08:57.923Z,6.17
2019-05-19T19:11:24.215Z,6.15
2019-05-19T19:13:50.309Z,5.40
2019-05-19T19:16:16.455Z,5.95
2019-05-19T19:18:42.651Z,7.65
2019-05-19T19:21:08.756Z,7.05
2019-05-19T19:23:34.894Z,8.13
2019-05-19T19:26:01.122Z,6.47
2019-05-19T19:28:27.252Z,8.05
2019-05-19T19:30:53.415Z,6.90
2019-05-19T19:33:19.640Z,7.17
2019-05-19T19:35:45.773Z,11.30
2019-05-19T19:38:12.017Z,8.35
2019-05-19T19:40:38.284Z,9.23
2019-05-19T19:43:04.474Z,10.98
2019-05-19T19:45:30.619Z,9.90
2019-05-19T19:47:56.769Z,9.18
2019-05-19T19:50:23.098Z,10.10
2019-05-19T19:52:49.386Z,9.05
2019-05-19T19:55:15.523Z,8.98
2019-05-19T19:57:41.677Z,7.40
2019-05-19T20:00:17.965Z,12.25
2019-05-19T20:02:36.282Z,9.05
2019-05-19T20:05:03.436Z,8.13
2019-05-19T20:07:29.637Z,8.98
2019-05-19T20:09:55.890Z,9.75
2019-05-19T20:12:21.945Z,7.97
2019-05-19T20:14:48.142Z,8.73
2019-05-19T20:17:14.199Z,8.40
2019-05-19T20:19:40.398Z,9.30
2019-05-19T20:22:06.465Z,8.85
2019-05-19T20:24:32.745Z,9.45
2019-05-19T20:26:58.875Z,8.25
2019-05-19T20:29:24.956Z,8.40
2019-05-19T20:31:51.148Z,7.97
2019-05-19T20:34:17.354Z,9.35
2019-05-19T20:36:43.508Z,8.85
2019-05-19T20:39:09.675Z,8.75
2019-05-19T20:41:35.763Z,10.43
2019-05-19T20:44:02.576Z,7.70
2019-05-19T20:46:28.801Z,9.85
2019-05-19T20:48:55.053Z,11.05
2019-05-19T20:51:21.325Z,10.08
2019-05-19T20:53:47.589Z,9.05
2019-05-19T20:56:13.718Z,10.38
2019-05-19T20:58:39.840Z,13.65
2019-05-19T21:01:05.980Z,10.43
2019-05-19T21:03:32.272Z,10.03
2019-05-19T21:05:58.427Z,9.25
2019-05-19T21:08:24.546Z,8.20
2019-05-19T21:10:50.679Z,7.47
2019-05-19T21:13:16.907Z,6.45
2019-05-19T21:15:42.959Z,8.30
2019-05-19T21:18:09.379Z,7.92
2019-05-19T21:20:35.557Z,9.00
2019-05-19T21:23:01.742Z,10.98
2019-05-19T21:25:28.055Z,9.40
2019-05-19T21:27:54.140Z,9.70
2019-05-19T21:30:20.451Z,11.28
2019-05-19T21:32:46.597Z,31.73
2019-05-19T21:35:13.868Z,26.27
2019-05-19T21:37:40.047Z,11.73
2019-05-19T21:40:06.942Z,20.43
2019-05-19T21:42:33.107Z,23.20
